createdAt,value
2024-04-21T00:01:27.822Z,83.60
2024-04-21T00:04:00.379Z,82.10
2024-04-21T00:06:32.628Z,82.40
2024-04-21T00:09:04.814Z,81.30
2024-04-21T00:11:36.935Z,81.30
2024-04-21T00:14:10.015Z,81.70
2024-04-21T00:16:42.138Z,81.90
2024-04-21T00:19:14.722Z,81.90
2024-04-21T00:21:46.957Z,82.70
2024-04-21T00:24:19.163Z,81.70
2024-04-21T00:26:51.263Z,82.10
2024-04-21T00:29:23.817Z,81.40
2024-04-21T00:31:56.014Z,80.50
2024-04-21T00:34:28.080Z,79.80
2024-04-21T00:37:00.332Z,79.20
2024-04-21T00:39:32.473Z,78.10
2024-04-21T00:42:04.659Z,78.60
2024-04-21T00:44:37.924Z,77.90
2024-04-21T00:47:10.189Z,76.90
2024-04-21T00:49:43.496Z,76.40
2024-04-21T00:52:16.178Z,75.40
2024-04-21T00:54:48.447Z,75.20
2024-04-21T00:57:21.155Z,75.20
2024-04-21T00:59:53.380Z,75.50
2024-04-21T01:02:25.525Z,75.90
2024-04-21T01:05:00.384Z,75.10
2024-04-21T01:07:32.540Z,75.70
2024-04-21T01:10:05.624Z,76.30
2024-04-21T01:12:41.654Z,75.40
2024-04-21T01:15:13.915Z,73.80
2024-04-21T01:17:46.188Z,73.10
2024-04-21T01:20:18.621Z,73.00
2024-04-21T01:22:50.959Z,72.10
2024-04-21T01:25:23.131Z,71.10
2024-04-21T01:27:56.655Z,71.90
2024-04-21T01:30:29.095Z,72.40
2024-04-21T01:33:01.359Z,71.90
2024-04-21T01:35:33.730Z,72.10
2024-04-21T01:38:05.872Z,74.50
2024-04-21T01:40:38.018Z,73.10
2024-04-21T01:43:10.139Z,72.30
2024-04-21T01:45:42.645Z,72.40
2024-04-21T01:48:14.724Z,72.50
2024-04-21T01:50:49.959Z,71.80
2024-04-21T01:53:22.080Z,72.40
2024-04-21T01:55:54.278Z,72.30
2024-04-21T01:58:26.414Z,72.80
2024-04-21T02:00:58.612Z,73.30
2024-04-21T02:03:30.803Z,72.00
2024-04-21T02:06:03.005Z,71.60
2024-04-21T02:08:35.056Z,71.70
2024-04-21T02:11:07.094Z,71.50
2024-04-21T02:13:39.382Z,72.00
2024-04-21T02:16:11.505Z,71.90
2024-04-21T02:18:43.681Z,72.20
2024-04-21T02:21:15.763Z,71.70
2024-04-21T02:23:50.993Z,71.70
2024-04-21T02:26:23.084Z,72.00
2024-04-21T02:28:55.184Z,72.20
2024-04-21T02:31:27.363Z,71.90
2024-04-21T02:33:59.760Z,71.70
2024-04-21T02:36:31.910Z,71.90
2024-04-21T02:39:22.761Z,71.70
2024-04-21T02:41:54.802Z,71.40
2024-04-21T02:44:26.984Z,72.10
2024-04-21T02:46:59.176Z,72.00
2024-04-21T02:49:31.535Z,71.80
2024-04-21T02:52:04.494Z,71.40
2024-04-21T02:54:37.255Z,70.70
2024-04-21T02:57:09.288Z,69.90
2024-04-21T02:59:41.799Z,69.80
2024-04-21T03:02:14.032Z,69.80
2024-04-21T03:04:46.203Z,70.50
2024-04-21T03:07:18.985Z,70.60
2024-04-21T03:09:51.208Z,70.20
2024-04-21T03:12:23.373Z,70.20
2024-04-21T03:14:55.482Z,70.20
2024-04-21T03:17:27.628Z,69.90
2024-04-21T03:19:59.720Z,69.30
2024-04-21T03:22:31.796Z,69.60
2024-04-21T03:25:04.277Z,69.10
2024-04-21T03:27:36.403Z,68.30
2024-04-21T03:30:08.825Z,69.00
2024-04-21T03:32:41.051Z,69.60
2024-04-21T03:35:16.428Z,68.90
2024-04-21T03:37:48.651Z,70.20
2024-04-21T03:40:21.609Z,70.70
2024-04-21T03:42:53.780Z,70.50
2024-04-21T03:45:25.855Z,69.60
2024-04-21T03:47:58.087Z,69.50
2024-04-21T03:50:30.151Z,70.30
2024-04-21T03:53:02.281Z,69.70
2024-04-21T03:55:34.472Z,69.30
2024-04-21T03:58:06.584Z,69.90
2024-04-21T04:00:39.011Z,70.30
2024-04-21T04:03:11.071Z,70.90
2024-04-21T04:05:45.348Z,72.30
2024-04-21T04:08:17.490Z,74.40
2024-04-21T04:10:49.774Z,75.30
2024-04-21T04:13:21.996Z,76.20
2024-04-21T04:15:54.187Z,76.70
2024-04-21T04:18:26.481Z,77.80
2024-04-21T04:20:58.543Z,77.30
2024-04-21T04:23:30.734Z,77.60
2024-04-21T04:26:02.848Z,78.50
2024-04-21T04:28:35.035Z,78.80
2024-04-21T04:31:07.277Z,80.30
2024-04-21T04:33:39.486Z,80.40
2024-04-21T04:36:11.734Z,79.40
2024-04-21T04:38:43.798Z,80.10
2024-04-21T04:41:15.934Z,80.30
2024-04-21T04:43:48.044Z,80.60
2024-04-21T04:46:20.212Z,79.90
2024-04-21T04:48:53.063Z,79.30
2024-04-21T04:51:25.229Z,77.70
2024-04-21T04:53:57.338Z,78.00
2024-04-21T04:56:29.448Z,77.90
2024-04-21T04:59:03.986Z,76.20
2024-04-21T05:01:37.448Z,75.30
2024-04-21T05:04:09.679Z,75.40
2024-04-21T05:06:41.924Z,74.80
2024-04-21T05:09:13.921Z,74.60
2024-04-21T05:11:46.114Z,74.40
2024-04-21T05:14:18.254Z,74.60
2024-04-21T05:16:50.358Z,75.60
2024-04-21T05:19:22.426Z,74.80
2024-04-21T05:21:54.508Z,74.20
2024-04-21T05:24:26.644Z,74.60
2024-04-21T05:26:58.777Z,74.60
2024-04-21T05:29:31.011Z,74.20
2024-04-21T05:32:03.176Z,72.60
2024-04-21T05:34:35.475Z,72.60
2024-04-21T05:37:07.525Z,72.90
2024-04-21T05:39:39.664Z,71.80
2024-04-21T05:42:11.751Z,71.30
2024-04-21T05:44:43.777Z,70.60
2024-04-21T05:47:17.605Z,70.30
2024-04-21T05:49:49.670Z,70.20
2024-04-21T05:52:21.894Z,70.00
2024-04-21T05:54:54.033Z,69.90
2024-04-21T05:57:26.232Z,70.30
2024-04-21T05:59:58.255Z,71.00
2024-04-21T06:02:30.455Z,70.90
2024-04-21T06:05:04.306Z,70.70
2024-04-21T06:07:36.461Z,68.00
2024-04-21T06:10:08.783Z,69.10
2024-04-21T06:12:40.825Z,69.90
2024-04-21T06:15:12.880Z,70.00
2024-04-21T06:17:45.009Z,71.00
2024-04-21T06:20:17.295Z,71.60
2024-04-21T06:22:49.330Z,71.30
2024-04-21T06:25:21.433Z,70.70
2024-04-21T06:27:53.620Z,72.00
2024-04-21T06:30:25.665Z,71.10
2024-04-21T06:32:57.801Z,70.20
2024-04-21T06:35:29.840Z,70.90
2024-04-21T06:38:02.012Z,71.00
2024-04-21T06:40:34.086Z,68.80
2024-04-21T06:43:06.331Z,68.70
2024-04-21T06:45:41.766Z,69.40
2024-04-21T06:48:14.310Z,67.90
2024-04-21T06:50:46.453Z,68.70
2024-04-21T06:53:19.248Z,68.50
2024-04-21T06:55:51.674Z,66.60
2024-04-21T06:58:23.891Z,63.50
2024-04-21T07:00:56.642Z,64.00
2024-04-21T07:03:28.751Z,63.00
2024-04-21T07:06:00.830Z,60.40
2024-04-21T07:08:32.931Z,61.90
2024-04-21T07:11:06.806Z,61.20
2024-04-21T07:13:39.075Z,56.80
2024-04-21T07:16:11.217Z,58.50
2024-04-21T07:18:43.531Z,57.50
2024-04-21T07:21:15.759Z,58.30
2024-04-21T07:23:47.856Z,58.70
2024-04-21T07:26:19.920Z,58.90
2024-04-21T07:28:52.130Z,58.40
2024-04-21T07:31:24.313Z,58.70
2024-04-21T07:33:56.433Z,56.80
2024-04-21T07:36:28.501Z,55.70
2024-04-21T07:39:00.586Z,56.10
2024-04-21T07:41:32.651Z,55.10
2024-04-21T07:44:04.914Z,54.90
2024-04-21T07:46:37.099Z,54.20
2024-04-21T07:49:09.224Z,53.50
2024-04-21T07:51:41.259Z,52.50
2024-04-21T07:54:13.395Z,52.60
2024-04-21T07:56:48.586Z,55.70
2024-04-21T07:59:20.682Z,56.30
2024-04-21T08:01:52.875Z,54.50
2024-04-21T08:04:25.180Z,56.10
2024-04-21T08:06:57.908Z,56.40
2024-04-21T08:09:31.475Z,58.00
2024-04-21T08:12:04.212Z,58.40
2024-04-21T08:14:36.384Z,57.90
2024-04-21T08:17:08.464Z,59.70
2024-04-21T08:19:40.654Z,60.00
2024-04-21T08:22:12.810Z,61.20
2024-04-21T08:24:44.888Z,61.00
2024-04-21T08:27:16.907Z,61.80
2024-04-21T08:29:49.018Z,61.90
2024-04-21T08:32:21.083Z,61.80
2024-04-21T08:34:53.700Z,59.40
2024-04-21T08:37:25.806Z,60.10
2024-04-21T08:39:57.975Z,57.10
2024-04-21T08:42:36.176Z,58.20
2024-04-21T08:45:08.899Z,58.80
2024-04-21T08:47:41.511Z,58.40
2024-04-21T08:50:14.601Z,59.60
2024-04-21T08:52:47.286Z,60.40
2024-04-21T08:55:21.899Z,60.50
2024-04-21T08:57:53.941Z,60.90
2024-04-21T09:00:28.007Z,63.80
2024-04-21T09:03:00.826Z,63.50
2024-04-21T09:05:33.648Z,63.70
2024-04-21T09:08:06.273Z,64.20
2024-04-21T09:10:38.325Z,63.90
2024-04-21T09:13:10.812Z,65.00
2024-04-21T09:15:43.174Z,62.40
2024-04-21T09:18:15.320Z,64.20
2024-04-21T09:20:47.503Z,65.10
2024-04-21T09:23:19.588Z,64.50
2024-04-21T09:25:51.594Z,65.80
2024-04-21T09:28:24.768Z,67.80
2024-04-21T09:30:57.511Z,67.90
2024-04-21T09:33:30.969Z,68.70
2024-04-21T09:36:03.256Z,69.80
2024-04-21T09:38:36.501Z,69.70
2024-04-21T09:41:11.197Z,70.20
2024-04-21T09:43:44.576Z,70.90
2024-04-21T09:46:18.751Z,70.70
2024-04-21T09:48:52.251Z,71.30
2024-04-21T09:51:27.179Z,71.70
2024-04-21T09:54:01.276Z,72.80
2024-04-21T09:56:41.948Z,72.70
2024-04-21T09:59:16.717Z,72.80
2024-04-21T10:01:50.298Z,73.70
2024-04-21T10:04:24.153Z,73.40
2024-04-21T10:06:57.414Z,72.50
2024-04-21T10:09:29.985Z,72.30
2024-04-21T10:12:02.188Z,71.40
2024-04-21T10:14:34.310Z,69.60
2024-04-21T10:17:06.623Z,70.10
2024-04-21T10:19:40.143Z,68.10
2024-04-21T10:22:13.880Z,68.50
2024-04-21T10:24:46.348Z,68.70
2024-04-21T10:27:23.579Z,70.00
2024-04-21T10:29:55.834Z,69.40
2024-04-21T10:32:28.986Z,70.40
2024-04-21T10:35:01.066Z,70.10
2024-04-21T10:37:33.663Z,68.80
2024-04-21T10:40:07.368Z,68.90
2024-04-21T10:42:39.658Z,67.40
2024-04-21T10:45:12.151Z,70.10
2024-04-21T10:47:44.380Z,71.70
2024-04-21T10:50:16.917Z,71.40
2024-04-21T10:52:49.041Z,70.60
2024-04-21T10:55:21.523Z,69.30
2024-04-21T10:57:53.921Z,69.20
2024-04-21T11:00:26.200Z,68.70
2024-04-21T11:02:58.407Z,65.10
2024-04-21T11:05:38.687Z,65.00
2024-04-21T11:08:10.736Z,64.90
2024-04-21T11:10:43.534Z,68.90
2024-04-21T11:13:15.722Z,69.60
2024-04-21T11:15:47.845Z,69.10
2024-04-21T11:18:20.330Z,69.70
2024-04-21T11:20:52.951Z,70.30
2024-04-21T11:23:25.003Z,70.80
2024-04-21T11:25:57.071Z,72.00
2024-04-21T11:28:30.863Z,70.20
2024-04-21T11:31:07.274Z,68.80
2024-04-21T11:33:39.937Z,69.20
2024-04-21T11:36:16.523Z,69.60
2024-04-21T11:38:50.715Z,68.50
2024-04-21T11:41:23.392Z,68.70
2024-04-21T11:43:56.606Z,67.10
2024-04-21T11:46:29.844Z,67.60
2024-04-21T11:49:01.987Z,65.00
2024-04-21T11:51:34.541Z,64.70
2024-04-21T11:54:06.660Z,64.30
2024-04-21T11:56:38.808Z,65.40
2024-04-21T11:59:10.910Z,63.80
2024-04-21T12:01:49.750Z,62.80
2024-04-21T12:04:23.087Z,62.30
2024-04-21T12:06:55.256Z,65.80
2024-04-21T12:09:27.317Z,63.60
2024-04-21T12:11:59.554Z,65.20
2024-04-21T12:14:33.996Z,64.90
2024-04-21T12:17:06.332Z,67.00
2024-04-21T12:19:38.490Z,68.50
2024-04-21T12:22:10.851Z,69.20
2024-04-21T12:24:43.902Z,69.80
2024-04-21T12:27:16.834Z,69.70
2024-04-21T12:29:49.059Z,70.00
2024-04-21T12:32:21.158Z,68.40
2024-04-21T12:34:53.259Z,66.60
2024-04-21T12:37:25.438Z,65.80
2024-04-21T12:39:57.544Z,65.70
2024-04-21T12:42:29.656Z,65.30
2024-04-21T12:45:01.720Z,62.90
2024-04-21T12:47:33.943Z,69.90
2024-04-21T12:50:07.014Z,72.40
2024-04-21T12:52:39.177Z,73.40
2024-04-21T12:55:11.357Z,73.60
2024-04-21T12:57:43.516Z,73.40
2024-04-21T13:00:15.972Z,73.00
2024-04-21T13:02:48.090Z,70.30
2024-04-21T13:05:20.131Z,70.00
2024-04-21T13:07:52.597Z,70.70
2024-04-21T13:10:25.591Z,70.80
2024-04-21T13:12:57.758Z,71.50
2024-04-21T13:15:30.117Z,71.90
2024-04-21T13:18:02.412Z,72.90
2024-04-21T13:20:34.623Z,74.80
2024-04-21T13:23:07.765Z,76.50
2024-04-21T13:25:40.060Z,77.10
2024-04-21T13:28:12.281Z,76.80
2024-04-21T13:30:44.501Z,77.90
2024-04-21T13:33:16.817Z,78.10
2024-04-21T13:35:48.933Z,77.60
2024-04-21T13:38:21.073Z,78.50
2024-04-21T13:40:57.488Z,79.00
2024-04-21T13:43:29.974Z,77.90
2024-04-21T13:46:02.326Z,78.70
2024-04-21T13:48:34.410Z,78.30
2024-04-21T13:51:16.958Z,78.30
2024-04-21T13:53:56.888Z,78.60
2024-04-21T13:56:29.131Z,74.80
2024-04-21T13:59:01.325Z,76.70
2024-04-21T14:01:33.490Z,78.50
2024-04-21T14:04:06.603Z,79.30
2024-04-21T14:06:38.889Z,80.70
2024-04-21T14:09:10.901Z,80.50
2024-04-21T14:11:43.016Z,79.50
2024-04-21T14:14:15.091Z,79.60
2024-04-21T14:16:47.344Z,78.00
2024-04-21T14:19:19.634Z,79.80
2024-04-21T14:21:51.877Z,78.80
2024-04-21T14:24:24.006Z,79.70
2024-04-21T14:26:56.036Z,79.50
2024-04-21T14:29:29.424Z,81.20
2024-04-21T14:32:01.518Z,81.60
2024-04-21T14:34:36.968Z,82.00
2024-04-21T14:37:10.496Z,80.90
2024-04-21T14:39:42.628Z,82.10
2024-04-21T14:42:16.162Z,80.90
2024-04-21T14:44:52.369Z,80.40
2024-04-21T14:47:24.816Z,79.30
2024-04-21T14:49:57.137Z,80.90
2024-04-21T14:52:34.562Z,79.50
2024-04-21T14:55:07.946Z,79.30
2024-04-21T14:57:40.133Z,81.20
2024-04-21T15:00:13.357Z,83.10
2024-04-21T15:02:45.632Z,81.80
2024-04-21T15:05:17.903Z,83.80
2024-04-21T15:07:49.980Z,83.30
2024-04-21T15:10:22.211Z,84.70
2024-04-21T15:12:55.517Z,83.10
2024-04-21T15:15:30.355Z,82.20
2024-04-21T15:18:02.506Z,80.30
2024-04-21T15:20:34.742Z,80.30
2024-04-21T15:23:06.763Z,79.40
2024-04-21T15:25:38.904Z,81.50
2024-04-21T15:28:11.935Z,78.70
2024-04-21T15:30:44.003Z,77.60
2024-04-21T15:33:16.221Z,77.00
2024-04-21T15:35:48.532Z,77.80
2024-04-21T15:38:20.594Z,78.80
2024-04-21T15:40:52.772Z,79.60
2024-04-21T15:43:24.810Z,79.40
2024-04-21T15:45:56.981Z,79.50
2024-04-21T15:48:32.297Z,78.10
2024-04-21T15:51:06.632Z,78.10
2024-04-21T15:53:39.018Z,79.00
2024-04-21T15:56:11.125Z,77.70
2024-04-21T15:58:43.452Z,78.60
2024-04-21T16:01:15.551Z,79.50
2024-04-21T16:03:47.836Z,79.40
2024-04-21T16:06:19.912Z,77.80
2024-04-21T16:08:52.120Z,76.80
2024-04-21T16:11:24.282Z,79.60
2024-04-21T16:13:56.373Z,80.10
2024-04-21T16:16:28.865Z,78.60
2024-04-21T16:19:01.193Z,78.40
2024-04-21T16:21:33.787Z,78.30
2024-04-21T16:24:06.350Z,78.40
2024-04-21T16:26:38.473Z,78.60
2024-04-21T16:29:10.646Z,80.20
2024-04-21T16:31:43.368Z,82.20
2024-04-21T16:34:16.339Z,82.90
2024-04-21T16:36:49.160Z,84.40
2024-04-21T16:39:21.579Z,86.00
2024-04-21T16:41:54.028Z,87.70
2024-04-21T16:57:58.432Z,86.10
2024-04-21T17:00:30.838Z,84.30
2024-04-21T17:03:03.699Z,85.30
2024-04-21T17:05:36.195Z,87.90
2024-04-21T17:08:36.102Z,89.50
2024-04-21T17:11:08.721Z,89.60
2024-04-21T17:13:44.698Z,87.80
2024-04-21T17:16:18.100Z,87.20
2024-04-21T17:18:50.354Z,87.20
2024-04-21T17:21:22.373Z,87.90
2024-04-21T17:23:54.458Z,87.60
2024-04-21T17:26:26.501Z,88.40
2024-04-21T17:28:59.272Z,84.70
2024-04-21T17:31:31.392Z,83.30
2024-04-21T17:34:03.531Z,84.30
2024-04-21T17:36:36.134Z,84.70
2024-04-21T17:39:08.413Z,85.30
2024-04-21T17:41:40.853Z,86.60
2024-04-21T17:44:15.720Z,85.70
2024-04-21T17:46:51.922Z,85.50
2024-04-21T17:49:24.154Z,85.90
2024-04-21T17:51:56.464Z,85.40
2024-04-21T17:54:28.558Z,85.80
2024-04-21T17:57:00.940Z,85.90
2024-04-21T17:59:33.175Z,84.40
2024-04-21T18:02:05.484Z,84.30
2024-04-21T18:04:37.804Z,84.60
2024-04-21T18:07:10.031Z,84.90
2024-04-21T18:09:42.183Z,85.00
2024-04-21T18:12:14.468Z,85.20
2024-04-21T18:14:46.578Z,85.60
2024-04-21T18:17:25.876Z,86.20
2024-04-21T18:20:00.434Z,85.40
2024-04-21T18:22:32.969Z,85.20
2024-04-21T18:25:05.846Z,84.30
2024-04-21T18:27:39.951Z,84.10
2024-04-21T18:30:12.228Z,83.50
2024-04-21T18:32:45.918Z,84.30
2024-04-21T18:35:18.162Z,83.90
2024-04-21T18:37:53.855Z,84.10
2024-04-21T18:40:25.925Z,87.10
2024-04-21T18:43:00.022Z,90.20
2024-04-21T18:45:32.142Z,91.00
2024-04-21T18:48:04.586Z,91.30
2024-04-21T18:50:45.660Z,91.20
2024-04-21T18:53:18.116Z,92.00
2024-04-21T18:55:50.376Z,92.60
2024-04-21T18:58:22.604Z,93.00
2024-04-21T19:00:55.080Z,93.40
2024-04-21T19:03:27.633Z,93.70
2024-04-21T19:06:01.102Z,93.80
2024-04-21T19:08:33.240Z,93.90
2024-04-21T19:11:06.973Z,94.20
2024-04-21T19:13:41.091Z,93.80
2024-04-21T19:16:14.266Z,94.20
2024-04-21T19:18:46.796Z,94.50
2024-04-21T19:21:19.601Z,94.30
2024-04-21T19:23:52.051Z,94.90
2024-04-21T19:26:24.155Z,95.30
2024-04-21T19:28:56.442Z,95.90
2024-04-21T19:31:28.616Z,96.30
2024-04-21T19:34:01.767Z,96.60
2024-04-21T19:36:34.275Z,96.90
2024-04-21T19:39:06.921Z,96.70
2024-04-21T19:41:39.121Z,96.70
2024-04-21T19:44:13.064Z,97.00
2024-04-21T19:46:45.128Z,97.40
2024-04-21T19:49:17.677Z,97.70
2024-04-21T19:51:50.481Z,98.20
2024-04-21T19:54:29.684Z,98.70
2024-04-21T19:57:08.381Z,98.70
2024-04-21T19:59:43.155Z,98.60
2024-04-21T20:02:15.957Z,98.60
2024-04-21T20:04:48.410Z,99.30
2024-04-21T20:07:20.817Z,99.20
2024-04-21T20:09:55.502Z,99.40
2024-04-21T20:12:28.551Z,99.50
2024-04-21T20:15:19.042Z,99.60
2024-04-21T20:18:09.637Z,99.90
2024-04-21T20:20:42.161Z,99.90
2024-04-21T20:23:14.422Z,99.90
2024-04-21T20:25:46.693Z,99.90
2024-04-21T20:28:18.843Z,99.90
2024-04-21T20:30:51.034Z,99.90
2024-04-21T20:33:23.233Z,99.90
2024-04-21T20:35:55.263Z,99.90
2024-04-21T20:38:27.666Z,99.90
2024-04-21T20:41:00.023Z,99.90
2024-04-21T20:43:32.514Z,99.90
2024-04-21T20:46:04.804Z,99.90
2024-04-21T20:48:40.140Z,99.90
2024-04-21T20:51:12.472Z,99.90
2024-04-21T20:53:44.828Z,99.90
2024-04-21T20:56:17.456Z,99.90
2024-04-21T20:58:52.765Z,99.90
2024-04-21T21:01:25.779Z,99.90
2024-04-21T21:03:57.961Z,99.90
2024-04-21T21:06:30.362Z,99.90
2024-04-21T21:09:02.416Z,99.90
2024-04-21T21:11:34.777Z,99.90
2024-04-21T21:14:07.796Z,99.90
2024-04-21T21:16:39.921Z,99.90
2024-04-21T21:19:12.100Z,99.90
2024-04-21T21:21:44.361Z,99.90
2024-04-21T21:24:18.324Z,99.90
2024-04-21T21:26:50.871Z,99.90
2024-04-21T21:29:23.109Z,99.90
2024-04-21T21:31:56.392Z,99.90
2024-04-21T21:34:28.856Z,99.90
2024-04-21T21:37:01.055Z,99.90
2024-04-21T21:39:33.147Z,99.90
2024-04-21T21:42:06.612Z,99.90
2024-04-21T21:44:38.846Z,99.90
2024-04-21T21:47:11.006Z,99.90
2024-04-21T21:49:43.179Z,99.90
2024-04-21T21:52:15.371Z,99.90
2024-04-21T21:54:47.474Z,99.90
2024-04-21T21:57:20.097Z,99.90
2024-04-21T21:59:52.203Z,99.90
2024-04-21T22:02:24.561Z,99.90
2024-04-21T22:04:56.700Z,99.90
2024-04-21T22:07:28.773Z,99.90
2024-04-21T22:10:00.897Z,99.90
2024-04-21T22:12:33.036Z,99.90
2024-04-21T22:15:05.485Z,99.90
2024-04-21T22:17:37.706Z,99.90
2024-04-21T22:20:10.375Z,99.90
2024-04-21T22:22:42.561Z,99.90
2024-04-21T22:25:14.856Z,99.90
2024-04-21T22:27:47.023Z,99.90
2024-04-21T22:30:19.476Z,99.90
2024-04-21T22:32:51.838Z,99.90
2024-04-21T22:35:24.580Z,99.90
2024-04-21T22:37:56.651Z,99.90
2024-04-21T22:40:28.867Z,99.90
2024-04-21T22:43:01.043Z,99.90
2024-04-21T22:45:33.080Z,99.90
2024-04-21T22:48:05.540Z,99.90
2024-04-21T22:50:37.641Z,99.90
2024-04-21T22:53:09.670Z,99.90
2024-04-21T22:55:41.841Z,99.90
2024-04-21T22:58:14.054Z,99.90
2024-04-21T23:00:47.080Z,99.90
2024-04-21T23:03:34.316Z,99.90
2024-04-21T23:06:07.174Z,99.90
2024-04-21T23:08:39.287Z,99.90
2024-04-21T23:11:11.453Z,99.90
2024-04-21T23:13:43.612Z,99.90
2024-04-21T23:16:16.593Z,99.90
2024-04-21T23:18:48.814Z,99.90
2024-04-21T23:21:20.927Z,99.90
2024-04-21T23:23:53.090Z,99.90
2024-04-21T23:26:25.160Z,99.90
2024-04-21T23:28:57.268Z,99.90
2024-04-21T23:31:32.852Z,99.90
2024-04-21T23:34:05.006Z,99.90
2024-04-21T23:36:37.115Z,99.90
2024-04-21T23:39:09.919Z,99.90
2024-04-21T23:41:42.120Z,99.90
2024-04-21T23:44:14.250Z,99.90
2024-04-21T23:46:47.062Z,99.90
2024-04-21T23:49:21.023Z,99.90
2024-04-21T23:51:53.180Z,99.90
2024-04-21T23:54:25.295Z,99.90
2024-04-21T23:56:57.490Z,99.90
2024-04-21T23:59:29.702Z,99.90
